Time;durP1;ratioP1;P1;durP2;ratioP2;P2;SDS_P1;SDS_P2;PMS_P1;PMS_P2;Temp;Humidity;BMP_temperature;BMP_pressure;BME280_temperature;BME280_humidity;BME280_pressure;Samples;Min_cycle;Max_cycle;Signal;HPM_P1;HPM_P2
2022/06/12 05:32:41;;;;;;;99.32;62.87;;;;;;;23.22;57.39;100338.77;504565;105;947124;-79
2022/06/12 05:33:45;;;;;;;105.40;64.22;;;;;;;23.21;57.09;100341.87;495283;107;922727;-79
2022/06/12 05:34:51;;;;;;;106.90;65.82;;;;;;;23.31;56.83;100343.65;485466;109;930444;-80
2022/06/12 05:35:54;;;;;;;100.57;64.07;;;;;;;23.38;56.69;100344.88;486180;109;923099;-79
2022/06/12 05:36:59;;;;;;;99.62;62.99;;;;;;;23.45;56.47;100345.32;486319;109;922880;-77
2022/06/12 05:38:02;;;;;;;102.38;62.17;;;;;;;23.51;56.27;100337.73;479017;108;922615;-76
2022/06/12 05:39:05;;;;;;;100.09;61.76;;;;;;;23.60;56.16;100341.45;485026;107;922690;-74
2022/06/12 05:40:12;;;;;;;96.09;61.04;;;;;;;23.65;55.96;100347.75;495381;107;922535;-74
2022/06/12 05:41:16;;;;;;;105.59;63.54;;;;;;;23.73;55.76;100353.75;495226;107;923031;-73
2022/06/12 05:42:20;;;;;;;107.64;65.04;;;;;;;23.79;55.53;100344.17;487190;107;922967;-73
2022/06/12 05:43:24;;;;;;;103.21;63.85;;;;;;;23.85;55.36;100331.80;489464;108;922609;-78
2022/06/12 05:44:27;;;;;;;103.19;63.98;;;;;;;23.90;55.16;100334.48;489529;108;923162;-81
2022/06/12 05:45:33;;;;;;;96.18;62.27;;;;;;;23.96;55.04;100336.86;489416;108;922582;-81
2022/06/12 05:46:36;;;;;;;98.87;63.16;;;;;;;24.03;54.94;100344.80;491806;107;922497;-80
2022/06/12 05:47:57;;;;;;;100.31;60.96;;;;;;;24.09;54.75;100338.00;485477;108;922655;-81
2022/06/12 05:49:00;;;;;;;98.77;60.43;;;;;;;24.14;54.63;100339.84;485254;109;922598;-80
2022/06/12 05:50:04;;;;;;;97.89;61.54;;;;;;;24.20;54.59;100339.47;495506;107;922535;-81
2022/06/12 05:51:07;;;;;;;94.46;63.43;;;;;;;24.26;54.45;100343.77;495520;107;922601;-79
2022/06/12 05:52:10;;;;;;;95.49;62.70;;;;;;;24.33;54.31;100337.77;495415;107;922881;-81
2022/06/12 05:53:14;;;;;;;91.42;58.28;;;;;;;24.37;54.27;100334.05;495481;107;922693;-81
2022/06/12 05:54:17;;;;;;;95.59;60.94;;;;;;;24.42;54.08;100342.30;495391;107;923085;-79
2022/06/12 05:55:21;;;;;;;98.72;60.46;;;;;;;24.46;54.13;100337.77;495540;107;922691;-81
2022/06/12 05:56:26;;;;;;;95.92;55.92;;;;;;;24.50;54.10;100333.20;495523;107;922943;-81
2022/06/12 05:57:29;;;;;;;87.46;56.82;;;;;;;24.56;54.04;100341.45;495249;107;922656;-81
2022/06/12 05:58:35;;;;;;;85.17;54.92;;;;;;;24.61;53.92;100336.58;495531;107;922586;-81
2022/06/12 05:59:38;;;;;;;83.49;54.34;;;;;;;24.65;53.73;100342.34;495297;107;922513;-80
2022/06/12 06:00:42;;;;;;;85.11;53.93;;;;;;;24.68;53.65;100331.41;495379;107;922498;-81
2022/06/12 06:01:45;;;;;;;81.09;54.25;;;;;;;24.73;53.54;100334.08;495387;107;923329;-80
2022/06/12 06:02:48;;;;;;;83.92;54.79;;;;;;;24.76;53.50;100335.39;495493;107;930430;-81
2022/06/12 06:03:53;;;;;;;85.06;53.38;;;;;;;24.81;53.38;100329.72;495510;107;922774;-77
2022/06/12 06:04:56;;;;;;;73.99;47.78;;;;;;;24.84;53.36;100326.29;495219;107;922580;-82
2022/06/12 06:06:00;;;;;;;74.71;47.43;;;;;;;24.88;53.26;100332.91;495289;107;923038;-75
2022/06/12 06:07:03;;;;;;;72.79;46.30;;;;;;;24.93;53.19;100329.98;495129;107;922553;-75
2022/06/12 06:08:08;;;;;;;67.08;43.92;;;;;;;24.97;53.03;100321.83;495269;107;922598;-75
2022/06/12 06:09:12;;;;;;;69.17;45.26;;;;;;;24.99;52.98;100325.94;495006;107;922602;-74
2022/06/12 06:10:22;;;;;;;71.14;46.09;;;;;;;25.02;52.88;100325.32;495121;107;922624;-75
2022/06/12 06:11:26;;;;;;;68.54;45.76;;;;;;;25.07;52.82;100324.37;494923;107;930495;-76
2022/06/12 06:12:29;;;;;;;55.80;38.92;;;;;;;25.10;52.87;100315.34;494947;107;922949;-75
2022/06/12 06:13:32;;;;;;;56.36;37.15;;;;;;;25.13;52.77;100323.92;495219;107;922514;-75
2022/06/12 06:14:35;;;;;;;63.37;38.00;;;;;;;25.17;52.49;100319.34;495226;107;922810;-75
2022/06/12 06:15:41;;;;;;;58.39;37.97;;;;;;;25.21;52.49;100316.73;495038;107;922582;-74
2022/06/12 06:16:45;;;;;;;53.12;37.15;;;;;;;25.23;52.53;100309.70;495071;107;922538;-75
2022/06/12 06:17:48;;;;;;;60.03;39.93;;;;;;;25.26;52.42;100314.63;495177;107;922818;-76
2022/06/12 06:18:54;;;;;;;63.49;37.69;;;;;;;25.31;52.35;100310.88;495115;107;922771;-75
2022/06/12 06:19:57;;;;;;;47.21;36.51;;;;;;;25.33;52.28;100312.22;494942;107;930091;-75
2022/06/12 06:21:00;;;;;;;47.64;34.65;;;;;;;25.37;52.28;100315.19;495230;107;923083;-74
2022/06/12 06:22:04;;;;;;;43.52;33.29;;;;;;;25.41;52.24;100309.81;495165;107;923196;-75
2022/06/12 06:23:08;;;;;;;43.86;32.66;;;;;;;25.43;52.18;100307.50;495147;107;923128;-75
2022/06/12 06:24:12;;;;;;;41.96;31.38;;;;;;;25.47;52.05;100305.74;495142;107;923344;-76
2022/06/12 06:25:15;;;;;;;39.92;30.72;;;;;;;25.51;51.98;100301.16;495123;107;922666;-74
2022/06/12 06:26:19;;;;;;;42.78;30.75;;;;;;;25.53;51.98;100308.05;495207;107;922648;-75
2022/06/12 06:27:22;;;;;;;44.83;29.36;;;;;;;25.57;52.06;100305.48;495170;107;922527;-75
2022/06/12 06:28:25;;;;;;;37.02;28.26;;;;;;;25.60;52.03;100302.05;495269;107;922670;-73
2022/06/12 06:29:28;;;;;;;34.04;27.82;;;;;;;25.63;51.97;100305.03;494697;107;922750;-75
2022/06/12 06:30:32;;;;;;;39.03;28.35;;;;;;;25.67;51.84;100302.41;495452;107;922615;-74
2022/06/12 06:31:35;;;;;;;35.48;27.44;;;;;;;25.70;51.81;100304.55;495479;107;922555;-74
2022/06/12 06:32:41;;;;;;;36.31;28.76;;;;;;;25.74;51.69;100299.98;492463;107;923194;-74
2022/06/12 06:33:44;;;;;;;41.80;29.18;;;;;;;25.77;51.62;100298.50;489940;108;922886;-75
2022/06/12 06:34:47;;;;;;;36.06;27.72;;;;;;;25.80;51.36;100301.49;487042;109;922589;-74
2022/06/12 06:35:51;;;;;;;39.49;27.71;;;;;;;25.83;51.37;100302.80;486968;109;923268;-74
2022/06/12 06:36:54;;;;;;;44.47;27.22;;;;;;;25.86;51.41;100302.96;486973;109;923013;-74
2022/06/12 06:37:57;;;;;;;37.34;27.65;;;;;;;25.89;51.36;100295.92;486942;109;922633;-75
2022/06/12 06:39:00;;;;;;;33.19;27.45;;;;;;;25.91;51.31;100305.64;487017;109;922635;-75
2022/06/12 06:40:05;;;;;;;35.76;28.02;;;;;;;25.94;51.20;100298.56;486879;109;922719;-75
2022/06/12 06:41:08;;;;;;;33.90;26.39;;;;;;;25.97;51.11;100306.28;486780;109;922813;-75
2022/06/12 06:42:11;;;;;;;37.48;26.15;;;;;;;26.00;50.96;100302.86;480323;109;923129;-75
2022/06/12 06:43:16;;;;;;;33.11;25.20;;;;;;;26.02;50.89;100300.58;477923;111;922614;-74
2022/06/12 06:47:03;;;;;;;31.77;24.16;;;;;;;26.10;50.64;100303.38;477846;111;922635;-74
2022/06/12 06:48:08;;;;;;;37.75;26.61;;;;;;;26.12;50.56;100306.69;477950;111;922719;-74
2022/06/12 06:49:12;;;;;;;30.82;24.22;;;;;;;26.15;50.36;100300.43;477815;110;922528;-73
2022/06/12 06:50:17;;;;;;;32.77;22.84;;;;;;;26.18;50.30;100310.15;477989;110;922892;-75
2022/06/12 06:51:20;;;;;;;31.53;23.85;;;;;;;26.21;50.21;100300.27;486063;109;922585;-74
2022/06/12 06:52:23;;;;;;;28.82;23.20;;;;;;;26.24;50.10;100303.30;486821;109;922578;-73
2022/06/12 06:53:26;;;;;;;28.53;22.93;;;;;;;26.26;50.08;100300.15;486879;109;922555;-74
2022/06/12 06:54:30;;;;;;;24.87;21.61;;;;;;;26.29;50.08;100305.10;486814;109;922705;-74
2022/06/12 06:55:36;;;;;;;28.31;21.96;;;;;;;26.32;49.94;100299.67;486627;109;922600;-75
2022/06/12 06:56:39;;;;;;;22.87;20.44;;;;;;;26.36;49.76;100294.23;486696;109;923149;-74
2022/06/12 06:57:45;;;;;;;29.30;22.94;;;;;;;26.38;49.56;100295.57;486900;109;923189;-75
2022/06/12 06:58:49;;;;;;;23.75;20.67;;;;;;;26.40;49.37;100290.48;486622;109;922560;-75
2022/06/12 06:59:52;;;;;;;30.42;20.21;;;;;;;26.44;49.26;100290.64;486915;109;922664;-74
2022/06/12 07:00:55;;;;;;;26.17;19.73;;;;;;;26.48;49.18;100291.63;486673;109;922608;-74
2022/06/12 07:01:58;;;;;;;21.24;18.99;;;;;;;26.50;49.21;100290.16;485430;109;922985;-74
2022/06/12 07:03:01;;;;;;;23.77;18.83;;;;;;;26.54;49.14;100291.14;485396;109;922849;-74
2022/06/12 07:04:04;;;;;;;20.16;17.90;;;;;;;26.57;48.97;100289.68;485406;109;922705;-75
2022/06/12 07:05:08;;;;;;;21.75;18.39;;;;;;;26.60;48.78;100294.60;485407;109;922791;-74
2022/06/12 07:06:14;;;;;;;18.02;16.09;;;;;;;26.63;48.51;100298.73;485352;109;923061;-74
2022/06/12 07:07:17;;;;;;;18.34;16.60;;;;;;;26.65;48.23;100288.84;485199;109;922748;-75
2022/06/12 07:08:21;;;;;;;18.43;16.70;;;;;;;26.68;48.01;100290.17;485479;109;922564;-74
2022/06/12 07:09:24;;;;;;;18.41;16.48;;;;;;;26.70;47.80;100294.27;485280;109;922575;-73
2022/06/12 07:10:30;;;;;;;18.06;16.36;;;;;;;26.72;47.72;100296.75;485463;107;922623;-74
2022/06/12 07:11:34;;;;;;;20.22;16.69;;;;;;;26.74;47.71;100288.86;485196;109;923394;-75
2022/06/12 07:12:37;;;;;;;16.65;14.34;;;;;;;26.76;47.75;100294.92;485365;109;923100;-74
2022/06/12 07:13:40;;;;;;;16.23;14.69;;;;;;;26.78;47.47;100289.84;485431;109;923305;-74
2022/06/12 07:14:43;;;;;;;16.36;14.74;;;;;;;26.81;47.29;100283.56;485446;109;922679;-73
2022/06/12 07:15:46;;;;;;;17.82;15.42;;;;;;;26.83;47.20;100298.06;485407;109;923363;-73
2022/06/12 07:16:49;;;;;;;14.47;13.04;;;;;;;26.85;47.20;100292.97;485308;109;922742;-72
2022/06/12 07:17:54;;;;;;;11.34;10.35;;;;;;;26.86;47.04;100291.79;485424;109;922619;-73
2022/06/12 07:18:57;;;;;;;10.14;9.18;;;;;;;26.87;46.88;100283.11;485329;109;922697;-74
2022/06/12 07:20:00;;;;;;;10.86;9.95;;;;;;;26.89;46.67;100283.61;485447;107;923279;-74
2022/06/12 07:21:03;;;;;;;10.21;9.24;;;;;;;26.91;46.58;100289.67;485433;109;922659;-74
2022/06/12 07:22:07;;;;;;;9.48;8.61;;;;;;;26.93;46.41;100283.76;485327;109;922858;-74
2022/06/12 07:23:11;;;;;;;9.63;8.47;;;;;;;26.95;46.32;100281.46;485464;109;922704;-75
2022/06/12 07:24:15;;;;;;;7.19;6.56;;;;;;;26.97;46.03;100282.77;485312;109;923216;-73
2022/06/12 07:25:19;;;;;;;7.67;6.81;;;;;;;27.01;45.65;100293.30;485461;109;930393;-74
2022/06/12 07:26:34;;;;;;;7.75;7.09;;;;;;;27.04;45.30;100287.86;485390;109;922889;-74
2022/06/12 07:27:38;;;;;;;7.83;7.13;;;;;;;27.05;45.09;100283.91;485235;109;922628;-75
2022/06/12 07:28:41;;;;;;;7.68;7.08;;;;;;;27.08;44.82;100294.42;485381;109;923270;-74
2022/06/12 07:29:45;;;;;;;8.24;6.61;;;;;;;27.10;44.62;100280.11;487055;108;923078;-74
2022/06/12 07:30:50;;;;;;;7.53;6.83;;;;;;;27.12;44.41;100283.41;490663;108;922697;-71
2022/06/12 07:31:53;;;;;;;11.33;8.55;;;;;;;27.13;44.23;100291.45;490446;108;922890;-72
2022/06/12 07:32:56;;;;;;;7.97;7.28;;;;;;;27.15;43.98;100289.16;492402;107;922764;-74
2022/06/12 07:34:00;;;;;;;8.89;7.57;;;;;;;27.17;43.79;100277.64;495214;107;930613;-74
2022/06/12 07:35:06;;;;;;;9.87;8.72;;;;;;;27.18;43.76;100280.08;495015;107;922679;-73
2022/06/12 07:36:12;;;;;;;9.28;7.08;;;;;;;27.20;43.82;100286.18;495141;107;922741;-74
2022/06/12 07:37:15;;;;;;;6.82;6.17;;;;;;;27.23;43.76;100277.13;495068;107;922599;-74
2022/06/12 07:38:20;;;;;;;8.61;6.85;;;;;;;27.26;43.53;100278.42;495308;107;922995;-74
2022/06/12 07:39:27;;;;;;;9.03;7.49;;;;;;;27.28;43.28;100279.75;495122;107;922681;-75
2022/06/12 07:40:34;;;;;;;12.71;8.97;;;;;;;27.30;43.21;100274.63;495137;107;922709;-74
2022/06/12 07:41:38;;;;;;;9.58;7.85;;;;;;;27.35;43.22;100280.04;493322;107;922693;-74
2022/06/12 07:42:41;;;;;;;13.01;9.20;;;;;;;27.37;43.03;100276.91;486263;108;922887;-74
2022/06/12 07:43:45;;;;;;;14.56;10.99;;;;;;;27.39;42.85;100271.81;486216;108;922756;-74
2022/06/12 07:44:49;;;;;;;11.81;10.41;;;;;;;27.43;42.61;100278.38;486053;109;922685;-74
2022/06/12 07:45:52;;;;;;;11.01;10.06;;;;;;;27.48;42.55;100280.17;486189;109;923121;-74
2022/06/12 07:46:57;;;;;;;9.73;8.86;;;;;;;27.52;42.45;100275.56;488459;107;922647;-75
2022/06/12 07:48:00;;;;;;;8.25;7.36;;;;;;;27.55;42.28;100278.53;495130;107;922641;-74
2022/06/12 07:49:03;;;;;;;7.85;7.01;;;;;;;27.58;42.20;100266.64;495307;107;923017;-75
2022/06/12 07:50:08;;;;;;;6.88;6.18;;;;;;;27.63;42.19;100269.26;495270;107;922654;-75
2022/06/12 07:51:14;;;;;;;6.93;5.85;;;;;;;27.67;42.06;100267.45;495225;107;922689;-74
2022/06/12 07:52:20;;;;;;;6.94;5.22;;;;;;;27.71;41.87;100271.22;495047;107;930590;-74
2022/06/12 07:53:25;;;;;;;5.79;5.19;;;;;;;27.76;41.74;100270.20;494794;107;922834;-74
2022/06/12 07:54:30;;;;;;;7.28;5.93;;;;;;;27.82;41.65;100268.86;495242;107;922679;-74
2022/06/12 07:55:33;;;;;;;6.16;5.61;;;;;;;27.87;41.55;100256.63;495141;107;922572;-74
2022/06/12 07:56:36;;;;;;;6.77;5.48;;;;;;;27.93;41.48;100260.87;495269;107;930501;-74
2022/06/12 07:57:40;;;;;;;5.14;4.72;;;;;;;27.98;41.25;100269.91;489531;107;922624;-75
2022/06/12 07:58:45;;;;;;;4.27;3.92;;;;;;;28.04;40.77;100264.94;486025;109;922697;-75
2022/06/12 07:59:48;;;;;;;4.00;3.70;;;;;;;28.10;40.32;100261.61;485839;109;923198;-74
2022/06/12 08:00:54;;;;;;;5.13;4.61;;;;;;;28.17;39.90;100264.70;486044;109;922732;-75
2022/06/12 08:01:58;;;;;;;4.79;4.26;;;;;;;28.23;39.60;100256.12;485851;109;922666;-75
2022/06/12 08:03:01;;;;;;;4.86;4.42;;;;;;;28.30;39.37;100259.18;486082;109;922706;-75
2022/06/12 08:04:06;;;;;;;7.19;5.81;;;;;;;28.36;39.21;100253.03;486077;109;922679;-75
2022/06/12 08:05:10;;;;;;;5.35;4.95;;;;;;;28.42;39.13;100260.08;485787;109;922891;-75
2022/06/12 08:06:14;;;;;;;6.16;4.85;;;;;;;28.48;39.17;100255.91;485832;109;922565;-75
2022/06/12 08:07:17;;;;;;;5.39;4.91;;;;;;;28.55;38.96;100258.17;485947;109;930537;-74
2022/06/12 08:08:20;;;;;;;6.22;5.68;;;;;;;28.61;38.67;100254.80;486045;109;922711;-74
2022/06/12 08:09:24;;;;;;;7.91;7.28;;;;;;;28.69;38.45;100258.70;486044;109;922733;-75
2022/06/12 08:10:27;;;;;;;6.68;6.17;;;;;;;28.78;38.25;100258.67;486019;109;922732;-74
2022/06/12 08:11:31;;;;;;;7.36;6.52;;;;;;;28.84;38.15;100260.89;486029;107;922710;-74
2022/06/12 08:12:37;;;;;;;8.89;7.47;;;;;;;28.89;38.05;100251.47;485951;109;922710;-73
2022/06/12 08:13:40;;;;;;;9.39;7.97;;;;;;;28.95;37.70;100256.50;485833;109;922672;-74
2022/06/12 08:14:43;;;;;;;10.43;9.54;;;;;;;29.02;37.57;100262.38;485957;109;922699;-75
2022/06/12 08:15:49;;;;;;;11.04;10.09;;;;;;;29.09;37.54;100258.19;486009;109;922555;-74
2022/06/12 08:16:52;;;;;;;11.12;10.16;;;;;;;29.15;37.57;100257.63;485780;109;923280;-74
2022/06/12 08:17:57;;;;;;;12.36;11.21;;;;;;;29.21;37.68;100258.23;485930;109;923069;-73
2022/06/12 08:19:00;;;;;;;13.20;11.98;;;;;;;29.25;37.81;100253.55;485953;107;922641;-74
2022/06/12 08:21:26;;;;;;;13.16;11.68;;;;;;;29.31;38.40;100249.35;485850;109;923211;-75
2022/06/12 08:22:29;;;;;;;15.85;11.49;;;;;;;29.33;38.58;100245.04;485909;109;922705;-75
2022/06/12 08:23:37;;;;;;;14.24;12.54;;;;;;;29.36;38.63;100235.94;486004;109;922677;-74
2022/06/12 08:24:40;;;;;;;15.69;13.14;;;;;;;29.37;38.71;100239.56;485816;109;922923;-75
2022/06/12 08:25:43;;;;;;;13.03;11.62;;;;;;;29.37;38.76;100243.20;486020;109;922669;-75
2022/06/12 08:26:46;;;;;;;14.29;12.99;;;;;;;29.35;39.02;100242.72;486006;109;923485;-75
2022/06/12 08:27:49;;;;;;;20.47;14.39;;;;;;;29.34;39.07;100241.07;486011;109;922647;-74
2022/06/12 08:28:56;;;;;;;15.69;13.83;;;;;;;29.33;39.12;100236.61;485972;109;922698;-76
2022/06/12 08:29:59;;;;;;;16.63;14.60;;;;;;;29.30;39.44;100240.10;491553;107;930289;-74
2022/06/12 08:31:05;;;;;;;16.29;14.61;;;;;;;29.30;39.56;100231.67;495320;107;923238;-73
2022/06/12 08:32:16;;;;;;;16.39;14.98;;;;;;;29.33;39.65;100235.83;495086;107;922850;-73
2022/06/12 08:33:20;;;;;;;14.22;12.70;;;;;;;29.34;39.86;100235.45;493054;107;922661;-75
2022/06/12 08:34:29;;;;;;;13.46;12.24;;;;;;;29.37;39.52;100234.77;489936;107;922653;-75
2022/06/12 08:35:36;;;;;;;12.49;11.38;;;;;;;29.40;39.38;100228.44;489559;108;930282;-74
2022/06/12 08:36:39;;;;;;;15.51;11.84;;;;;;;29.41;39.43;100227.28;489962;108;922686;-74
2022/06/12 08:37:43;;;;;;;13.86;9.88;;;;;;;29.44;39.49;100222.97;490002;108;922575;-74
2022/06/12 08:38:47;;;;;;;11.46;10.39;;;;;;;29.47;39.12;100218.62;489930;108;930365;-75
2022/06/12 08:39:50;;;;;;;11.65;10.72;;;;;;;29.51;38.52;100225.99;489959;108;930259;-74
2022/06/12 08:41:01;;;;;;;11.92;10.90;;;;;;;29.56;38.46;100225.76;489116;108;922645;-75
2022/06/12 08:42:14;;;;;;;12.88;11.66;;;;;;;29.59;38.38;100230.69;497623;105;922756;-76
2022/06/12 08:43:27;;;;;;;14.78;13.32;;;;;;;29.63;38.37;100231.62;497870;105;922772;-74
2022/06/12 08:44:50;;;;;;;13.97;12.74;;;;;;;29.79;38.56;100228.92;477098;110;947178;-75
2022/06/12 08:45:56;;;;;;;14.78;11.81;;;;;;;29.69;38.77;100226.59;465451;114;922810;-74
2022/06/12 08:47:08;;;;;;;16.42;11.27;;;;;;;29.69;38.80;100218.16;459687;114;923253;-75
2022/06/12 08:48:17;;;;;;;17.78;11.13;;;;;;;29.69;38.77;100218.98;454761;116;923163;-74
2022/06/12 08:49:30;;;;;;;13.34;9.60;;;;;;;29.70;38.38;100217.81;470412;112;922732;-75
2022/06/12 08:50:48;;;;;;;13.03;8.96;;;;;;;29.68;38.29;100222.95;471916;112;922955;-74
2022/06/12 08:52:10;;;;;;;10.57;9.46;;;;;;;29.67;37.98;100220.48;457538;115;923305;-75
2022/06/12 08:53:17;;;;;;;11.67;9.09;;;;;;;29.62;37.85;100229.16;469450;112;922883;-75
2022/06/12 08:54:35;;;;;;;11.32;8.62;;;;;;;29.58;37.36;100237.48;463501;114;922977;-74
2022/06/12 08:55:42;;;;;;;8.44;7.68;;;;;;;29.53;37.23;100231.27;462904;114;922743;-74
2022/06/12 08:56:49;;;;;;;13.10;8.40;;;;;;;29.49;37.21;100230.34;463514;114;922784;-75
2022/06/12 08:58:10;;;;;;;8.59;7.44;;;;;;;29.43;37.43;100239.00;463514;114;922603;-75
2022/06/12 08:59:24;;;;;;;7.90;7.16;;;;;;;29.37;37.62;100231.14;463260;114;922652;-74
2022/06/12 09:00:33;;;;;;;13.25;8.47;;;;;;;29.32;37.80;100226.58;463648;114;922742;-74
2022/06/12 09:01:43;;;;;;;7.68;7.02;;;;;;;29.29;37.90;100238.45;463559;114;923228;-75
2022/06/12 09:02:47;;;;;;;8.86;7.00;;;;;;;29.26;38.08;100241.98;463685;114;922706;-73
2022/06/12 09:03:53;;;;;;;15.76;8.30;;;;;;;29.25;38.37;100233.89;463595;114;923066;-74
2022/06/12 09:05:01;;;;;;;18.39;8.03;;;;;;;29.21;38.25;100242.20;463534;114;922627;-75
2022/06/12 09:06:14;;;;;;;16.16;7.27;;;;;;;29.16;38.19;100242.42;463543;114;922919;-73
2022/06/12 09:07:41;;;;;;;9.96;6.92;;;;;;;29.09;38.34;100242.16;463519;114;922723;-72
2022/06/12 09:09:05;;;;;;;11.21;5.60;;;;;;;29.00;38.33;100235.83;462542;114;923397;-73
2022/06/12 09:10:30;;;;;;;6.63;4.95;;;;;;;28.90;38.36;100230.63;463507;114;922708;-74
2022/06/12 09:11:42;;;;;;;12.18;5.46;;;;;;;28.79;38.63;100246.25;463438;114;922774;-74
2022/06/12 09:12:57;;;;;;;14.41;5.73;;;;;;;28.66;39.31;100241.74;463407;114;922673;-74
2022/06/12 09:14:10;;;;;;;7.00;5.03;;;;;;;28.55;40.85;100246.95;463547;114;922788;-75
2022/06/12 09:15:17;;;;;;;7.28;5.82;;;;;;;28.42;41.42;100236.83;463594;114;923346;-74
2022/06/12 09:16:30;;;;;;;9.82;6.02;;;;;;;28.23;42.03;100237.28;462883;114;922674;-75
2022/06/12 09:17:43;;;;;;;9.08;7.03;;;;;;;28.10;42.82;100241.16;462850;114;922767;-74
2022/06/12 09:19:09;;;;;;;17.66;7.09;;;;;;;27.93;43.72;100241.27;463563;114;922988;-74
2022/06/12 09:20:46;;;;;;;14.99;9.39;;;;;;;27.77;45.23;100235.42;462583;114;923143;-74
2022/06/12 09:22:13;;;;;;;14.39;10.48;;;;;;;27.58;47.00;100243.41;463559;114;922702;-74
2022/06/12 09:23:37;;;;;;;12.86;10.87;;;;;;;27.34;51.85;100252.39;463569;114;923124;-75
2022/06/12 09:24:55;;;;;;;13.92;10.36;;;;;;;26.96;55.34;100257.90;463385;114;922899;-73
2022/06/12 09:26:23;;;;;;;14.64;11.27;;;;;;;26.49;58.25;100254.95;463537;114;922652;-75
2022/06/12 09:27:29;;;;;;;14.82;11.84;;;;;;;26.14;60.63;100248.48;463492;114;922819;-74
2022/06/12 09:28:43;;;;;;;15.24;10.57;;;;;;;25.82;62.50;100251.69;462967;114;923145;-75
2022/06/12 09:29:56;;;;;;;12.29;10.26;;;;;;;25.70;63.54;100257.90;471375;110;947256;-77
2022/06/12 09:31:09;;;;;;;16.00;10.63;;;;;;;25.44;64.17;100244.95;456977;116;922925;-75
2022/06/12 09:32:32;;;;;;;15.81;11.40;;;;;;;25.30;64.70;100242.28;460103;114;923314;-76
2022/06/12 09:33:44;;;;;;;16.02;11.12;;;;;;;25.17;65.29;100232.84;462968;114;922555;-76
2022/06/12 09:34:54;;;;;;;16.36;12.22;;;;;;;24.97;65.42;100244.56;463044;114;923078;-74
2022/06/12 09:36:01;;;;;;;15.23;10.46;;;;;;;24.97;65.42;100244.56;463124;114;922644;-73
2022/06/12 09:38:59;;;;;;;12.78;10.64;;;;;;;24.89;66.21;100242.52;461630;114;922681;-76
2022/06/12 09:40:06;;;;;;;12.71;11.43;;;;;;;24.85;66.26;100245.10;462812;114;922707;-74
2022/06/12 09:41:18;;;;;;;14.82;11.53;;;;;;;24.80;66.18;100234.08;462272;114;922877;-74
2022/06/12 09:42:25;;;;;;;15.12;11.74;;;;;;;24.77;66.38;100242.23;462981;114;922599;-75
2022/06/12 09:43:55;;;;;;;12.48;10.99;;;;;;;24.74;65.86;100231.73;462695;114;922619;-76
2022/06/12 09:45:02;;;;;;;13.43;11.68;;;;;;;24.69;65.13;100229.07;463111;114;922583;-75
2022/06/12 09:46:14;;;;;;;12.99;11.68;;;;;;;24.66;64.31;100222.16;462481;114;922513;-74
2022/06/12 09:47:30;;;;;;;17.33;10.73;;;;;;;24.65;64.38;100217.71;463026;114;922620;-76
2022/06/12 09:48:57;;;;;;;12.68;10.81;;;;;;;24.65;64.52;100225.25;458811;114;922547;-76
2022/06/12 09:50:10;;;;;;;12.63;11.37;;;;;;;24.64;63.65;100218.05;463081;114;922789;-75
2022/06/12 09:51:31;;;;;;;15.42;11.77;;;;;;;24.62;63.94;100217.53;463069;114;922934;-76
2022/06/12 09:52:48;;;;;;;12.70;11.47;;;;;;;24.60;64.18;100223.41;463066;114;922657;-75
2022/06/12 09:54:18;;;;;;;12.74;11.24;;;;;;;24.60;64.52;100222.59;463009;114;922515;-75
2022/06/12 09:55:36;;;;;;;13.02;11.60;;;;;;;24.59;65.04;100223.75;463033;114;922587;-75
2022/06/12 09:56:54;;;;;;;12.42;11.17;;;;;;;24.57;65.52;100226.02;463012;114;922472;-75
2022/06/12 09:58:18;;;;;;;11.62;10.62;;;;;;;24.56;65.40;100219.63;463080;114;922621;-74
2022/06/12 09:59:27;;;;;;;15.41;11.37;;;;;;;24.57;65.66;100217.66;463049;114;922959;-74
2022/06/12 10:00:46;;;;;;;12.64;11.16;;;;;;;24.59;65.34;100223.75;463005;114;922534;-74
2022/06/12 10:01:53;;;;;;;12.67;11.49;;;;;;;24.60;65.30;100228.99;462938;114;922611;-74
2022/06/12 10:03:12;;;;;;;12.72;11.60;;;;;;;24.65;65.27;100230.83;462935;114;922576;-74
2022/06/12 10:04:22;;;;;;;12.51;11.29;;;;;;;24.69;65.21;100229.90;462948;114;922625;-75
2022/06/12 10:05:38;;;;;;;11.81;10.77;;;;;;;24.73;65.11;100219.75;452431;114;923572;-74
2022/06/12 10:06:51;;;;;;;12.96;11.43;;;;;;;24.76;65.08;100223.85;462931;114;922612;-75
2022/06/12 10:08:00;;;;;;;12.82;11.74;;;;;;;24.77;65.00;100222.72;454290;114;922959;-73
2022/06/12 10:09:18;;;;;;;13.22;11.97;;;;;;;24.78;64.79;100218.80;463089;114;922538;-75
2022/06/12 10:10:40;;;;;;;13.02;11.87;;;;;;;24.79;64.81;100215.70;463109;114;922589;-74
2022/06/12 10:11:47;;;;;;;13.97;12.69;;;;;;;24.81;64.91;100207.81;463065;114;922669;-74
2022/06/12 10:12:53;;;;;;;15.24;13.86;;;;;;;24.83;64.81;100208.33;463067;114;922711;-74
2022/06/12 10:14:12;;;;;;;17.88;14.02;;;;;;;24.89;65.05;100200.69;463040;114;922684;-74
2022/06/12 10:15:22;;;;;;;15.19;13.64;;;;;;;24.93;64.86;100202.52;463038;113;923073;-73
2022/06/12 10:16:40;;;;;;;16.61;15.06;;;;;;;24.93;64.86;100202.52;463010;114;922612;-72
2022/06/12 10:17:56;;;;;;;16.89;15.19;;;;;;;24.97;64.63;100199.92;459390;114;922639;-73
2022/06/12 10:19:05;;;;;;;17.29;15.67;;;;;;;25.00;64.40;100185.33;463102;113;922640;-73
2022/06/12 10:20:19;;;;;;;16.87;15.54;;;;;;;25.02;64.40;100191.42;462827;114;922603;-74
2022/06/12 10:21:25;;;;;;;20.81;17.46;;;;;;;25.05;64.44;100185.19;462942;114;930523;-74
2022/06/12 10:22:34;;;;;;;18.75;17.18;;;;;;;25.12;63.84;100182.77;463019;114;922966;-73
2022/06/12 10:23:38;;;;;;;18.30;16.92;;;;;;;25.12;63.84;100182.77;462981;114;922653;-74
2022/06/12 10:24:41;;;;;;;18.63;17.01;;;;;;;25.17;63.74;100188.20;463244;114;922768;-74
2022/06/12 10:25:47;;;;;;;17.36;15.90;;;;;;;25.20;63.90;100184.76;463288;114;922631;-74
2022/06/12 10:27:01;;;;;;;18.82;17.14;;;;;;;25.34;64.09;100193.86;479750;110;947195;-74
2022/06/12 10:28:16;;;;;;;18.97;17.33;;;;;;;25.26;64.24;100182.65;465363;114;922643;-75
2022/06/12 10:29:24;;;;;;;22.47;17.63;;;;;;;25.30;64.69;100189.25;465002;114;923114;-74
2022/06/12 10:30:43;;;;;;;18.32;16.60;;;;;;;25.31;64.99;100182.50;465107;114;922632;-75
2022/06/12 10:31:49;;;;;;;17.94;16.29;;;;;;;25.33;65.21;100172.67;465354;114;922756;-72
2022/06/12 10:32:56;;;;;;;18.52;16.97;;;;;;;25.35;66.11;100175.15;465386;114;922783;-74
2022/06/12 10:34:16;;;;;;;17.97;16.53;;;;;;;25.35;66.11;100175.15;465335;113;922992;-72
2022/06/12 10:35:22;;;;;;;18.88;17.36;;;;;;;25.37;66.35;100169.22;455142;113;922638;-74
2022/06/12 10:36:31;;;;;;;19.55;17.64;;;;;;;25.39;66.29;100170.56;465256;114;930758;-74
2022/06/12 10:37:34;;;;;;;18.65;17.15;;;;;;;25.39;66.29;100170.56;465282;114;922610;-75
2022/06/12 10:38:37;;;;;;;18.84;17.36;;;;;;;25.40;66.47;100163.84;465539;113;922467;-75
2022/06/12 10:39:40;;;;;;;18.98;17.21;;;;;;;25.41;66.49;100173.04;465660;114;922963;-73
2022/06/12 10:40:49;;;;;;;19.44;17.68;;;;;;;25.43;66.60;100170.72;465548;114;922476;-74
2022/06/12 10:41:59;;;;;;;19.11;17.46;;;;;;;25.44;67.03;100170.41;462449;113;923298;-74
2022/06/12 10:43:05;;;;;;;18.84;17.13;;;;;;;25.47;67.30;100163.38;465350;114;922646;-75